createdAt,value
2022-08-10T00:00:35.970Z,25.03
2022-08-10T00:03:02.951Z,25.02
2022-08-10T00:05:43.125Z,25.08
2022-08-10T00:08:10.933Z,25.02
2022-08-10T00:10:49.970Z,24.95
2022-08-10T00:13:17.011Z,24.88
2022-08-10T00:15:53.340Z,24.86
2022-08-10T00:18:34.582Z,24.82
2022-08-10T00:21:03.841Z,24.78
2022-08-10T00:23:31.002Z,24.74
2022-08-10T00:25:57.953Z,24.72
2022-08-10T00:28:25.000Z,24.70
2022-08-10T00:30:52.051Z,24.67
2022-08-10T00:33:19.104Z,24.64
2022-08-10T00:35:46.049Z,24.61
2022-08-10T00:38:13.093Z,24.58
2022-08-10T00:40:40.161Z,24.55
2022-08-10T00:43:07.198Z,24.53
2022-08-10T00:45:34.785Z,24.49
2022-08-10T00:48:01.695Z,24.46
2022-08-10T00:50:28.646Z,24.43
2022-08-10T00:52:55.696Z,24.42
2022-08-10T00:55:22.754Z,24.41
2022-08-10T00:57:55.218Z,24.41
2022-08-10T01:00:24.117Z,24.40
2022-08-10T01:02:51.404Z,24.40
2022-08-10T01:05:20.757Z,24.38
2022-08-10T01:08:08.192Z,24.36
2022-08-10T01:10:52.041Z,24.31
2022-08-10T01:13:25.524Z,24.26
2022-08-10T01:16:13.979Z,24.23
2022-08-10T01:18:44.211Z,24.19
2022-08-10T01:21:38.805Z,24.16
2022-08-10T01:24:27.769Z,24.14
2022-08-10T01:27:06.184Z,24.09
2022-08-10T01:29:36.308Z,24.06
2022-08-10T01:32:07.268Z,24.02
2022-08-10T01:34:40.009Z,23.99
2022-08-10T01:37:10.881Z,23.95
2022-08-10T01:39:43.921Z,23.91
2022-08-10T01:42:13.056Z,23.88
2022-08-10T01:44:45.598Z,23.84
2022-08-10T01:47:36.870Z,23.79
2022-08-10T01:50:10.764Z,23.75
2022-08-10T01:52:37.704Z,23.76
2022-08-10T01:55:05.567Z,23.76
2022-08-10T01:57:32.613Z,23.74
2022-08-10T02:00:02.509Z,23.72
2022-08-10T02:02:30.427Z,23.70
2022-08-10T02:04:57.342Z,23.69
2022-08-10T02:07:25.823Z,23.69
2022-08-10T02:09:53.696Z,23.68
2022-08-10T02:12:23.088Z,23.64
2022-08-10T02:14:59.641Z,23.59
2022-08-10T02:17:59.158Z,23.56
2022-08-10T02:20:19.674Z,23.55
2022-08-10T02:22:49.598Z,23.54
2022-08-10T02:25:42.210Z,23.51
2022-08-10T02:28:04.572Z,23.49
2022-08-10T02:30:31.623Z,23.45
2022-08-10T02:32:58.855Z,23.43
2022-08-10T02:35:27.359Z,23.42
2022-08-10T02:38:00.384Z,23.44
2022-08-10T02:42:18.645Z,23.43
2022-08-10T02:45:27.144Z,23.42
2022-08-10T02:46:13.911Z,23.51
2022-08-10T02:49:00.133Z,23.52
2022-08-10T02:52:07.888Z,23.51
2022-08-10T02:54:33.134Z,23.51
2022-08-10T02:57:03.028Z,23.51
2022-08-10T02:59:39.588Z,23.56
2022-08-10T03:02:08.284Z,23.49
2022-08-10T03:04:56.134Z,23.48
2022-08-10T03:07:44.236Z,23.45
2022-08-10T03:10:34.355Z,23.43
2022-08-10T03:13:02.217Z,23.45
2022-08-10T03:15:29.884Z,23.45
2022-08-10T03:17:58.785Z,23.45
2022-08-10T03:20:36.575Z,23.46
2022-08-10T03:23:13.174Z,23.46
2022-08-10T03:25:40.097Z,23.48
2022-08-10T03:28:07.034Z,23.50
2022-08-10T03:30:34.634Z,23.55
2022-08-10T03:33:03.386Z,23.59
2022-08-10T03:35:30.434Z,23.58
2022-08-10T03:37:59.794Z,23.68
2022-08-10T03:40:45.517Z,23.74
2022-08-10T03:43:18.218Z,23.76
2022-08-10T03:45:55.152Z,23.84
2022-08-10T03:48:24.399Z,23.87
2022-08-10T03:50:59.529Z,23.90
2022-08-10T03:54:02.391Z,23.91
2022-08-10T03:56:29.705Z,23.93
2022-08-10T03:58:58.874Z,23.98
2022-08-10T04:02:46.141Z,23.99
2022-08-10T04:04:15.482Z,24.01
2022-08-10T04:06:46.542Z,24.05
2022-08-10T04:09:18.202Z,24.07
2022-08-10T04:11:45.149Z,24.12
2022-08-10T04:14:38.234Z,24.16
2022-08-10T04:16:59.123Z,24.18
2022-08-10T04:19:26.413Z,24.20
2022-08-10T04:22:05.449Z,24.19
2022-08-10T04:24:33.363Z,24.16
2022-08-10T04:27:01.549Z,24.17
2022-08-10T04:29:28.801Z,24.21
2022-08-10T04:31:55.872Z,24.26
2022-08-10T04:34:22.895Z,24.32
2022-08-10T04:36:50.149Z,24.38
2022-08-10T04:39:17.531Z,24.42
2022-08-10T04:41:47.448Z,24.46
2022-08-10T04:44:15.182Z,24.47
2022-08-10T04:46:56.335Z,24.48
2022-08-10T04:49:52.147Z,24.52
2022-08-10T04:52:14.437Z,24.54
2022-08-10T04:54:41.822Z,24.58
2022-08-10T04:57:09.316Z,24.61
2022-08-10T04:59:36.490Z,24.64
2022-08-10T05:02:27.131Z,24.69
2022-08-10T05:04:50.853Z,24.74
2022-08-10T05:07:18.549Z,24.80
2022-08-10T05:10:02.911Z,24.86
2022-08-10T05:12:37.341Z,24.94
2022-08-10T05:15:09.799Z,25.00
2022-08-10T05:17:37.225Z,25.04
2022-08-10T05:20:07.474Z,25.08
2022-08-10T05:22:42.585Z,25.12
2022-08-10T05:25:12.853Z,25.14
2022-08-10T05:27:41.653Z,25.18
2022-08-10T05:30:10.565Z,25.22
2022-08-10T05:32:57.299Z,25.27
2022-08-10T05:35:27.925Z,25.29
2022-08-10T05:38:09.174Z,25.30
2022-08-10T05:40:46.049Z,25.34
2022-08-10T05:43:18.008Z,25.39
2022-08-10T05:46:17.054Z,25.44
2022-08-10T05:48:55.303Z,25.51
2022-08-10T05:51:20.872Z,25.57
2022-08-10T05:54:00.823Z,25.64
2022-08-10T05:56:54.698Z,25.72
2022-08-10T06:00:35.180Z,25.80
2022-08-10T06:02:41.704Z,25.90
2022-08-10T06:04:54.530Z,26.00
2022-08-10T06:07:22.185Z,26.09
2022-08-10T06:09:58.914Z,26.18
2022-08-10T06:12:31.352Z,26.24
2022-08-10T06:15:05.318Z,26.30
2022-08-10T06:17:33.371Z,26.36
2022-08-10T06:20:01.510Z,26.40
2022-08-10T06:22:32.713Z,26.45
2022-08-10T06:27:48.746Z,26.61
2022-08-10T06:30:19.836Z,26.71
2022-08-10T06:32:54.995Z,26.79
2022-08-10T06:35:25.890Z,26.89
2022-08-10T06:37:53.015Z,27.00
2022-08-10T06:40:20.560Z,27.13
2022-08-10T06:42:48.652Z,27.22
2022-08-10T06:45:30.550Z,27.30
2022-08-10T06:48:03.127Z,27.39
2022-08-10T06:50:45.237Z,27.49
2022-08-10T06:53:23.544Z,27.64
2022-08-10T06:55:57.451Z,27.80
2022-08-10T06:58:26.820Z,27.95
2022-08-10T07:00:54.490Z,28.08
2022-08-10T07:03:21.944Z,28.19
2022-08-10T07:05:51.402Z,28.27
2022-08-10T07:08:20.283Z,28.31
2022-08-10T07:10:47.844Z,28.34
2022-08-10T07:14:16.569Z,28.40
2022-08-10T07:16:10.931Z,28.48
2022-08-10T07:18:38.491Z,28.58
2022-08-10T07:21:05.743Z,28.69
2022-08-10T07:23:57.083Z,28.80
2022-08-10T07:26:20.120Z,28.91
2022-08-10T07:28:48.813Z,29.04
2022-08-10T07:31:54.328Z,29.17
2022-08-10T07:34:09.567Z,29.29
2022-08-10T07:36:36.822Z,29.41
2022-08-10T07:39:05.484Z,29.55
2022-08-10T07:41:33.206Z,29.74
2022-08-10T07:44:03.274Z,30.02
2022-08-10T07:46:31.176Z,30.33
2022-08-10T07:49:01.379Z,30.63
2022-08-10T07:51:28.625Z,30.91
2022-08-10T07:53:55.885Z,31.18
2022-08-10T07:56:47.268Z,31.41
2022-08-10T07:59:14.663Z,31.68
2022-08-10T08:01:50.431Z,31.92
2022-08-10T08:04:18.902Z,32.10
2022-08-10T08:06:46.159Z,32.25
2022-08-10T08:09:13.214Z,32.33
2022-08-10T08:11:43.019Z,32.33
2022-08-10T08:14:11.098Z,32.36
2022-08-10T08:16:40.540Z,32.44
2022-08-10T08:19:27.284Z,32.52
2022-08-10T08:24:05.848Z,32.64
2022-08-10T08:24:42.889Z,32.74
2022-08-10T08:27:10.894Z,32.81
2022-08-10T08:29:41.576Z,32.83
2022-08-10T08:32:08.578Z,32.86
2022-08-10T08:34:41.419Z,32.97
2022-08-10T08:37:11.205Z,33.12
2022-08-10T08:39:38.544Z,33.27
2022-08-10T08:42:26.369Z,33.46
2022-08-10T08:45:15.969Z,33.65
2022-08-10T08:48:05.040Z,33.81
2022-08-10T08:51:01.738Z,33.95
2022-08-10T08:54:02.428Z,34.07
2022-08-10T08:56:36.928Z,34.16
2022-08-10T08:59:42.414Z,34.26
2022-08-10T09:02:55.106Z,34.32
2022-08-10T09:05:58.562Z,34.41
2022-08-10T09:09:00.382Z,34.50
2022-08-10T09:11:49.141Z,34.57
2022-08-10T09:14:25.863Z,34.64
2022-08-10T09:17:04.855Z,34.85
2022-08-10T09:19:37.645Z,35.08
2022-08-10T09:22:41.547Z,35.28
2022-08-10T09:25:22.214Z,35.54
2022-08-10T09:28:10.154Z,35.80
2022-08-10T09:31:21.548Z,36.13
2022-08-10T09:36:22.291Z,36.40
2022-08-10T09:37:02.029Z,36.41
2022-08-10T09:40:12.574Z,36.28
2022-08-10T09:42:42.315Z,36.10
2022-08-10T09:45:16.809Z,36.05
2022-08-10T09:48:02.426Z,36.05
2022-08-10T09:51:28.057Z,36.06
2022-08-10T09:53:46.904Z,36.11
2022-08-10T09:57:17.924Z,36.19
2022-08-10T10:00:01.446Z,36.35
2022-08-10T10:03:06.779Z,36.54
2022-08-10T10:05:52.769Z,36.72
2022-08-10T10:08:28.655Z,36.85
2022-08-10T10:11:16.662Z,36.94
2022-08-10T10:14:02.794Z,37.03
2022-08-10T10:16:50.879Z,37.14
2022-08-10T10:19:37.211Z,37.05
2022-08-10T10:22:46.218Z,36.76
2022-08-10T10:25:51.360Z,36.46
2022-08-10T10:29:44.820Z,36.25
2022-08-10T10:32:09.629Z,35.96
2022-08-10T10:35:02.793Z,35.69
2022-08-10T10:38:00.725Z,35.45
2022-08-10T10:40:17.988Z,35.42
2022-08-10T10:43:15.961Z,35.54
2022-08-10T10:45:50.403Z,35.64
2022-08-10T10:48:48.463Z,35.77
2022-08-10T10:51:28.108Z,36.01
2022-08-10T10:54:13.799Z,36.25
2022-08-10T10:56:57.441Z,36.52
2022-08-10T10:59:55.417Z,36.73
2022-08-10T11:02:41.819Z,36.90
2022-08-10T11:05:31.500Z,37.08
2022-08-10T11:08:17.247Z,37.01
2022-08-10T11:12:00.397Z,36.77
2022-08-10T11:14:26.038Z,36.50
2022-08-10T11:17:16.641Z,36.29
2022-08-10T11:20:02.089Z,36.13
2022-08-10T11:22:50.985Z,36.12
2022-08-10T11:25:27.499Z,36.30
2022-08-10T11:28:05.463Z,36.40
2022-08-10T11:30:53.615Z,36.45
2022-08-10T11:34:04.083Z,36.49
2022-08-10T11:36:36.451Z,36.62
2022-08-10T11:39:16.870Z,36.79
2022-08-10T11:42:12.498Z,36.91
2022-08-10T11:44:49.834Z,37.04
2022-08-10T11:47:33.360Z,37.04
2022-08-10T11:50:01.639Z,36.89
2022-08-10T11:52:59.920Z,36.84
2022-08-10T11:55:33.117Z,36.61
2022-08-10T11:58:22.387Z,36.34
2022-08-10T12:00:49.641Z,36.08
2022-08-10T12:03:17.102Z,35.90
2022-08-10T12:05:54.551Z,35.74
2022-08-10T12:10:03.671Z,35.59
2022-08-10T12:11:24.254Z,35.40
2022-08-10T12:14:20.292Z,35.36
2022-08-10T12:16:52.454Z,35.50
2022-08-10T12:19:59.794Z,35.65
2022-08-10T12:22:51.329Z,35.74
2022-08-10T12:25:56.884Z,35.82
2022-08-10T12:28:15.181Z,35.82
2022-08-10T12:30:47.039Z,35.84
2022-08-10T12:33:24.304Z,35.88
2022-08-10T12:36:17.461Z,35.95
2022-08-10T12:39:26.189Z,35.90
2022-08-10T12:42:00.752Z,35.81
2022-08-10T12:44:44.719Z,35.71
2022-08-10T12:47:43.158Z,35.59
2022-08-10T12:50:32.916Z,35.48
2022-08-10T12:53:06.596Z,35.24
2022-08-10T12:55:35.039Z,35.02
2022-08-10T12:58:01.985Z,34.77
2022-08-10T13:00:53.878Z,34.58
2022-08-10T13:04:23.518Z,34.40
2022-08-10T13:06:14.134Z,34.21
2022-08-10T13:08:59.819Z,34.14
2022-08-10T13:12:37.468Z,34.17
2022-08-10T13:14:27.704Z,34.31
2022-08-10T13:16:57.289Z,34.45
2022-08-10T13:19:25.282Z,34.55
2022-08-10T13:21:52.331Z,34.62
2022-08-10T13:24:33.241Z,34.68
2022-08-10T13:27:25.134Z,34.80
2022-08-10T13:30:07.240Z,35.00
2022-08-10T13:32:38.659Z,35.14
2022-08-10T13:35:10.778Z,35.15
2022-08-10T13:37:39.639Z,35.14
2022-08-10T13:40:13.229Z,35.13
2022-08-10T13:42:41.852Z,34.98
2022-08-10T13:45:12.103Z,34.75
2022-08-10T13:47:48.743Z,34.50
2022-08-10T13:50:35.626Z,34.25
2022-08-10T13:53:14.249Z,33.98
2022-08-10T13:55:56.508Z,33.75
2022-08-10T13:58:34.826Z,33.55
2022-08-10T14:01:37.430Z,33.37
2022-08-10T14:04:06.374Z,33.16
2022-08-10T14:06:33.529Z,33.05
2022-08-10T14:09:02.701Z,33.02
2022-08-10T14:11:29.676Z,33.02
2022-08-10T14:13:58.864Z,33.02
2022-08-10T14:16:26.047Z,33.03
2022-08-10T14:18:56.154Z,33.06
2022-08-10T14:21:23.820Z,33.09
2022-08-10T14:23:53.627Z,33.02
2022-08-10T14:26:29.079Z,32.95
2022-08-10T14:29:18.950Z,32.80
2022-08-10T14:32:01.670Z,32.59
2022-08-10T14:34:59.416Z,32.41
2022-08-10T14:37:40.512Z,32.35
2022-08-10T14:40:16.139Z,32.32
2022-08-10T14:42:45.596Z,32.25
2022-08-10T14:45:19.878Z,32.14
2022-08-10T14:48:03.358Z,31.91
2022-08-10T14:50:33.553Z,31.73
2022-08-10T14:53:10.050Z,31.57
2022-08-10T14:55:58.390Z,31.46
2022-08-10T14:58:29.336Z,31.39
2022-08-10T15:00:56.816Z,31.29
2022-08-10T15:03:59.379Z,31.18
2022-08-10T15:06:17.232Z,31.05
2022-08-10T15:08:46.951Z,30.95
2022-08-10T15:12:13.008Z,30.87
2022-08-10T15:14:41.177Z,30.78
2022-08-10T15:16:55.908Z,30.72
2022-08-10T15:20:01.492Z,30.69
2022-08-10T15:22:36.255Z,30.65
2022-08-10T15:25:05.183Z,30.61
2022-08-10T15:27:54.921Z,30.57
2022-08-10T15:30:31.665Z,30.54
2022-08-10T15:34:02.032Z,30.51
2022-08-10T15:36:30.058Z,30.50
2022-08-10T15:39:00.204Z,30.49
2022-08-10T15:41:58.434Z,30.45
2022-08-10T15:44:35.655Z,30.39
2022-08-10T15:47:03.133Z,30.33
2022-08-10T15:49:45.322Z,30.30
2022-08-10T15:52:39.048Z,30.26
2022-08-10T15:55:42.432Z,30.21
2022-08-10T15:58:40.402Z,30.13
2022-08-10T16:02:14.717Z,30.06
2022-08-10T16:04:32.187Z,30.00
2022-08-10T16:07:06.064Z,29.91
2022-08-10T16:10:23.092Z,29.85
2022-08-10T16:12:59.601Z,29.79
2022-08-10T16:15:27.777Z,29.77
2022-08-10T16:17:56.477Z,29.75
2022-08-10T16:20:54.712Z,29.72
2022-08-10T16:23:29.065Z,29.65
2022-08-10T16:26:13.519Z,29.60
2022-08-10T16:28:45.141Z,29.54
2022-08-10T16:31:21.140Z,29.46
2022-08-10T16:33:56.177Z,29.37
2022-08-10T16:36:31.322Z,29.26
2022-08-10T16:38:59.092Z,29.17
2022-08-10T16:42:02.687Z,29.07
2022-08-10T16:44:19.406Z,28.98
2022-08-10T16:46:46.659Z,28.89
2022-08-10T16:49:14.117Z,28.80
2022-08-10T16:51:41.270Z,28.74
2022-08-10T16:54:08.430Z,28.66
2022-08-10T16:56:48.911Z,28.59
2022-08-10T16:59:24.749Z,28.51
2022-08-10T17:01:53.807Z,28.38
2022-08-10T17:04:22.829Z,28.27
2022-08-10T17:07:00.132Z,28.19
2022-08-10T17:09:34.667Z,28.13
2022-08-10T17:12:10.667Z,28.07
2022-08-10T17:14:38.917Z,27.99
2022-08-10T17:17:07.213Z,27.92
2022-08-10T17:19:43.102Z,27.85
2022-08-10T17:22:15.520Z,27.77
2022-08-10T17:24:50.664Z,27.71
2022-08-10T17:28:04.318Z,27.64
2022-08-10T17:30:15.985Z,27.55
2022-08-10T17:33:09.788Z,27.50
2022-08-10T17:35:38.086Z,27.45
2022-08-10T17:38:12.244Z,27.41
2022-08-10T17:41:05.403Z,27.36
2022-08-10T17:44:01.097Z,27.32
2022-08-10T17:46:19.602Z,27.26
2022-08-10T17:48:47.585Z,27.20
2022-08-10T17:51:15.766Z,27.14
2022-08-10T17:53:44.238Z,27.09
2022-08-10T17:56:11.811Z,27.03
2022-08-10T17:58:51.037Z,26.96
2022-08-10T18:01:41.680Z,26.90
2022-08-10T18:04:12.776Z,26.83
2022-08-10T18:06:41.360Z,26.77
2022-08-10T18:09:18.783Z,26.70
2022-08-10T18:11:48.116Z,26.62
2022-08-10T18:14:15.813Z,26.55
2022-08-10T18:16:43.946Z,26.50
2022-08-10T18:19:12.876Z,26.44
2022-08-10T18:21:41.494Z,26.37
2022-08-10T18:24:19.295Z,26.30
2022-08-10T18:26:51.641Z,26.23
2022-08-10T18:29:22.477Z,26.18
2022-08-10T18:31:49.868Z,26.13
2022-08-10T18:34:21.188Z,26.09
2022-08-10T18:36:49.504Z,26.03
2022-08-10T18:39:22.698Z,25.97
2022-08-10T18:42:00.171Z,25.90
2022-08-10T18:44:35.202Z,25.82
2022-08-10T18:47:16.827Z,25.75
2022-08-10T18:49:44.251Z,25.67
2022-08-10T18:52:12.566Z,25.60
2022-08-10T18:54:47.674Z,25.54
2022-08-10T18:57:22.627Z,25.46
2022-08-10T19:00:10.811Z,25.41
2022-08-10T19:03:18.896Z,25.26
2022-08-10T19:06:24.115Z,25.18
2022-08-10T19:09:09.642Z,25.06
2022-08-10T19:12:30.076Z,24.94
2022-08-10T19:15:36.094Z,24.93
2022-08-10T19:18:14.409Z,24.92
2022-08-10T19:20:52.218Z,24.91
2022-08-10T19:23:38.080Z,24.89
2022-08-10T19:26:43.749Z,24.85
2022-08-10T19:30:12.226Z,24.81
2022-08-10T19:32:38.241Z,24.78
2022-08-10T19:35:16.570Z,24.77
2022-08-10T19:38:00.386Z,24.76
2022-08-10T19:40:53.233Z,24.77
2022-08-10T19:44:00.648Z,24.78
2022-08-10T19:46:31.488Z,24.78
2022-08-10T19:49:39.854Z,24.77
2022-08-10T19:52:12.282Z,24.74
2022-08-10T19:55:02.469Z,24.73
2022-08-10T19:57:40.578Z,24.74
2022-08-10T20:00:19.309Z,24.74
2022-08-10T20:03:17.290Z,24.74
2022-08-10T20:06:18.099Z,24.75
2022-08-10T20:08:59.640Z,24.74
2022-08-10T20:11:44.499Z,24.71
2022-08-10T20:14:36.969Z,24.67
2022-08-10T20:17:05.973Z,24.65
2022-08-10T20:19:53.006Z,24.66
2022-08-10T20:22:29.614Z,24.66
2022-08-10T20:25:02.950Z,24.64
2022-08-10T20:27:59.468Z,24.62
2022-08-10T20:30:33.711Z,24.61
2022-08-10T20:33:11.780Z,24.59
2022-08-10T20:35:48.761Z,24.58
2022-08-10T20:38:39.372Z,24.57
2022-08-10T20:41:15.814Z,24.55
2022-08-10T20:43:55.580Z,24.53
2022-08-10T20:46:30.823Z,24.50
2022-08-10T20:49:32.076Z,24.49
2022-08-10T20:52:03.021Z,24.46
2022-08-10T20:54:45.017Z,24.46
2022-08-10T20:57:55.847Z,24.45
2022-08-10T21:00:23.035Z,24.42
2022-08-10T21:02:50.516Z,24.40
2022-08-10T21:05:36.095Z,24.37
2022-08-10T21:08:41.956Z,24.35
2022-08-10T21:11:16.312Z,24.30
2022-08-10T21:14:21.326Z,24.28
2022-08-10T21:17:10.386Z,24.25
2022-08-10T21:19:53.705Z,24.22
2022-08-10T21:22:29.534Z,24.21
2022-08-10T21:25:01.212Z,24.18
2022-08-10T21:27:59.626Z,24.15
2022-08-10T21:30:53.223Z,24.11
2022-08-10T21:33:49.124Z,24.07
2022-08-10T21:36:23.347Z,24.03
2022-08-10T21:39:09.916Z,24.01
2022-08-10T21:41:59.131Z,23.96
2022-08-10T21:45:10.930Z,23.93
2022-08-10T21:48:06.685Z,23.89
2022-08-10T21:51:05.956Z,23.83
2022-08-10T21:53:57.600Z,23.75
2022-08-10T21:56:46.977Z,23.66
2022-08-10T21:59:44.952Z,23.53
2022-08-10T22:02:34.936Z,23.37
2022-08-10T22:05:21.033Z,23.22
2022-08-10T22:08:12.083Z,23.13
2022-08-10T22:11:04.334Z,23.06
2022-08-10T22:13:51.818Z,22.96
2022-08-10T22:16:44.570Z,22.85
2022-08-10T22:19:30.056Z,22.81
2022-08-10T22:22:31.208Z,22.82
2022-08-10T22:25:52.013Z,22.82
2022-08-10T22:28:38.013Z,22.79
2022-08-10T22:31:48.174Z,22.76
2022-08-10T22:34:41.879Z,22.73
2022-08-10T22:37:51.501Z,22.70
2022-08-10T22:40:41.767Z,22.64
2022-08-10T22:43:47.042Z,22.59
2022-08-10T22:46:44.814Z,22.56
2022-08-10T22:49:11.767Z,22.53
2022-08-10T22:52:03.398Z,22.52
2022-08-10T22:54:57.018Z,22.51
2022-08-10T22:57:42.664Z,22.45
2022-08-10T23:00:15.185Z,22.39
2022-08-10T23:02:50.355Z,22.35
2022-08-10T23:05:17.640Z,22.35
2022-08-10T23:07:47.655Z,22.34
2022-08-10T23:10:15.398Z,22.28
2022-08-10T23:12:58.348Z,22.21
2022-08-10T23:15:46.806Z,22.17
2022-08-10T23:18:34.947Z,22.16
2022-08-10T23:21:02.114Z,22.16
2022-08-10T23:23:29.973Z,22.16
2022-08-10T23:25:58.491Z,22.16
2022-08-10T23:28:39.168Z,22.17
2022-08-10T23:31:13.457Z,22.16
2022-08-10T23:33:40.709Z,22.15
2022-08-10T23:36:32.214Z,22.11
2022-08-10T23:39:25.479Z,22.07
2022-08-10T23:41:42.201Z,22.01
2022-08-10T23:44:13.658Z,21.98
2022-08-10T23:46:47.975Z,21.95
2022-08-10T23:49:15.843Z,21.93
2022-08-10T23:51:54.966Z,21.91
2022-08-10T23:54:24.084Z,21.91
2022-08-10T23:56:52.664Z,21.90
2022-08-10T23:59:23.390Z,21.88
